Time;durP1;ratioP1;P1;durP2;ratioP2;P2;SDS_P1;SDS_P2;PMS_P1;PMS_P2;Temp;Humidity;BMP_temperature;BMP_pressure;BME280_temperature;BME280_humidity;BME280_pressure;Samples;Min_cycle;Max_cycle;Signal;HPM_P1;HPM_P2
2022/12/03 00:01:10;;;;;;;34.30;18.02;;;;;;;0.81;93.30;102365.84;5056662;28;20025;-81
2022/12/03 00:03:35;;;;;;;34.13;18.52;;;;;;;0.70;92.90;102338.69;5057004;28;20036;-88
2022/12/03 00:06:01;;;;;;;33.83;17.40;;;;;;;0.81;93.33;102370.09;5056932;28;20040;-87
2022/12/03 00:08:26;;;;;;;36.78;18.92;;;;;;;0.73;92.86;102348.88;5056856;28;20033;-87
2022/12/03 00:10:51;;;;;;;33.42;17.75;;;;;;;0.83;93.16;102369.22;5056921;28;20110;-87
2022/12/03 00:13:16;;;;;;;32.35;16.80;;;;;;;0.84;93.15;102359.91;5054957;28;20059;-84
2022/12/03 00:15:42;;;;;;;34.85;17.30;;;;;;;0.82;93.06;102359.06;5056665;28;20520;-87
2022/12/03 00:18:07;;;;;;;35.47;18.52;;;;;;;0.72;93.40;102340.41;5056508;28;20021;-87
2022/12/03 00:20:32;;;;;;;34.25;18.65;;;;;;;0.83;92.95;102353.97;5056886;28;20472;-87
2022/12/03 00:22:58;;;;;;;35.28;17.67;;;;;;;0.85;92.82;102356.50;5056783;28;20103;-87
2022/12/03 00:25:23;;;;;;;34.08;17.65;;;;;;;0.73;93.03;102334.47;5056572;28;20108;-85
2022/12/03 00:27:48;;;;;;;31.92;17.38;;;;;;;0.85;93.53;102351.44;5055116;28;20036;-87
2022/12/03 00:30:14;;;;;;;33.60;17.50;;;;;;;0.78;93.15;102330.22;5056425;28;20033;-78
2022/12/03 00:32:39;;;;;;;34.75;17.45;;;;;;;0.65;93.27;102310.72;5055097;28;20086;-86
2022/12/03 00:35:05;;;;;;;35.17;17.85;;;;;;;0.83;92.79;102341.25;5055016;28;20488;-83
2022/12/03 00:37:30;;;;;;;35.85;18.58;;;;;;;0.86;93.05;102337.88;5056279;28;20120;-85
2022/12/03 00:39:55;;;;;;;37.90;18.88;;;;;;;0.73;92.84;102323.44;5056435;28;20025;-86
2022/12/03 00:42:21;;;;;;;35.88;19.20;;;;;;;0.88;93.07;102348.88;5056234;28;20044;-84
2022/12/03 00:44:46;;;;;;;34.97;17.98;;;;;;;0.89;93.24;102342.97;5056385;28;20025;-87
2022/12/03 00:47:11;;;;;;;40.55;19.77;;;;;;;0.80;93.08;102327.69;5054963;28;20029;-88
2022/12/03 00:49:37;;;;;;;36.08;18.45;;;;;;;0.81;93.33;102332.78;5056092;28;20029;-87
2022/12/03 00:52:02;;;;;;;37.00;18.50;;;;;;;0.77;93.09;102325.13;5056146;28;20040;-88
2022/12/03 00:54:27;;;;;;;36.05;18.63;;;;;;;0.89;93.25;102340.44;5056622;28;20107;-87
2022/12/03 00:56:53;;;;;;;34.35;17.80;;;;;;;0.83;93.50;102333.63;5056068;28;20457;-87
2022/12/03 00:59:18;;;;;;;38.00;19.27;;;;;;;0.89;93.06;102344.66;5056126;28;20511;-87
2022/12/03 01:01:43;;;;;;;37.08;18.48;;;;;;;0.91;93.33;102340.44;5055855;28;20025;-87
2022/12/03 01:04:09;;;;;;;37.40;18.85;;;;;;;0.91;93.34;102337.88;5055870;28;20078;-87
2022/12/03 01:06:34;;;;;;;38.88;19.55;;;;;;;0.80;93.58;102328.56;5055958;28;20091;-87
2022/12/03 01:08:59;;;;;;;35.60;18.42;;;;;;;0.90;94.02;102342.13;5055862;28;20108;-85
2022/12/03 01:11:37;;;;;;;35.20;18.85;;;;;;;0.92;93.93;102347.22;5055061;28;20091;-77
2022/12/03 01:14:11;;;;;;;38.50;19.48;;;;;;;0.80;94.08;102331.09;5055615;28;20044;-77
2022/12/03 01:16:37;;;;;;;39.92;19.25;;;;;;;0.90;93.94;102341.28;5055571;28;20025;-75
2022/12/03 01:19:04;;;;;;;38.00;19.23;;;;;;;0.84;94.37;102330.22;5055572;28;20032;-77
2022/12/03 01:21:29;;;;;;;34.42;18.85;;;;;;;0.92;93.70;102330.25;5045347;28;20373;-76
2022/12/03 01:23:55;;;;;;;40.45;20.00;;;;;;;0.86;93.77;102331.09;5035633;28;20041;-79
2022/12/03 01:26:21;;;;;;;35.67;19.02;;;;;;;0.87;93.22;102331.94;5035665;28;20025;-76
2022/12/03 01:28:46;;;;;;;39.55;19.75;;;;;;;0.84;93.15;102324.31;5034247;28;20021;-84
2022/12/03 01:33:55;;;;;;;39.45;20.17;;;;;;;0.88;93.47;102332.78;5035694;28;20120;-79
2022/12/03 01:36:21;;;;;;;37.20;19.60;;;;;;;0.91;93.44;102338.72;5034157;28;20045;-76
2022/12/03 01:38:47;;;;;;;38.83;19.58;;;;;;;0.89;93.35;102332.81;5035222;28;20053;-79
2022/12/03 01:41:15;;;;;;;39.45;19.38;;;;;;;0.86;93.56;102331.09;5035223;28;20017;-82
2022/12/03 01:43:40;;;;;;;38.33;20.25;;;;;;;0.87;93.52;102331.94;5035252;28;20032;-83
2022/12/03 01:46:05;;;;;;;39.40;19.70;;;;;;;0.86;93.59;102331.09;5033878;28;20037;-83
2022/12/03 01:48:34;;;;;;;39.03;20.35;;;;;;;0.86;94.08;102326.00;5034893;28;20025;-83
2022/12/03 01:51:00;;;;;;;36.38;18.85;;;;;;;0.86;94.21;102326.00;5035172;28;20396;-80
2022/12/03 01:53:25;;;;;;;41.72;21.15;;;;;;;0.68;94.13;102292.91;5034957;28;20029;-84
2022/12/03 01:55:50;;;;;;;38.03;19.73;;;;;;;0.69;93.23;102291.22;5035105;28;20036;-76
2022/12/03 01:58:20;;;;;;;35.13;19.15;;;;;;;0.88;93.79;102330.22;5034997;28;20538;-77
2022/12/03 02:00:45;;;;;;;38.22;19.95;;;;;;;0.90;93.74;102326.03;5034985;28;20108;-79
2022/12/03 02:03:23;;;;;;;43.53;22.23;;;;;;;0.77;93.54;102305.63;5034585;28;20044;-81
2022/12/03 02:05:48;;;;;;;36.97;19.88;;;;;;;0.91;93.42;102330.25;5034680;28;20037;-79
2022/12/03 02:08:31;;;;;;;40.47;21.67;;;;;;;0.90;93.72;102316.69;5034794;28;20086;-83
2022/12/03 02:11:01;;;;;;;37.85;19.98;;;;;;;0.90;93.99;102326.03;5034842;28;20064;-76
2022/12/03 02:13:27;;;;;;;36.78;19.90;;;;;;;0.88;94.02;102323.44;5034408;28;20202;-76
2022/12/03 02:15:52;;;;;;;37.15;19.20;;;;;;;0.90;94.10;102326.88;5034691;28;20026;-77
2022/12/03 02:18:18;;;;;;;40.10;19.45;;;;;;;0.77;93.91;102305.63;5034621;28;20033;-78
2022/12/03 02:21:01;;;;;;;41.92;20.02;;;;;;;0.74;93.60;102289.53;5033220;28;20381;-77
2022/12/03 02:23:38;;;;;;;42.72;22.33;;;;;;;0.92;94.00;102326.88;5033965;28;20030;-76
2022/12/03 02:26:04;;;;;;;42.78;20.67;;;;;;;0.91;93.88;102323.47;5034294;28;20030;-76
2022/12/03 02:28:29;;;;;;;40.15;20.42;;;;;;;0.81;93.99;102307.34;5034355;28;20385;-76
2022/12/03 02:30:55;;;;;;;39.78;20.73;;;;;;;0.90;94.24;102319.25;5034391;28;20064;-75
2022/12/03 02:33:20;;;;;;;41.60;21.65;;;;;;;0.86;94.36;102303.09;5032334;28;20524;-86
2022/12/03 02:35:46;;;;;;;43.85;21.85;;;;;;;0.74;93.94;102281.91;5033997;28;20025;-82
2022/12/03 02:38:14;;;;;;;44.75;21.70;;;;;;;0.85;94.08;102301.41;5034188;28;20021;-78
2022/12/03 02:40:41;;;;;;;41.05;22.15;;;;;;;0.89;93.70;102309.06;5032974;28;20059;-77
2022/12/03 02:43:06;;;;;;;38.30;21.42;;;;;;;0.89;94.28;102303.97;5032162;28;20033;-81
2022/12/03 02:45:40;;;;;;;41.80;20.08;;;;;;;0.85;94.33;102296.31;5034208;28;20075;-75
2022/12/03 02:48:22;;;;;;;41.08;21.15;;;;;;;0.91;94.43;102309.91;5033740;28;20056;-76
2022/12/03 02:50:52;;;;;;;39.92;20.75;;;;;;;0.78;94.03;102287.00;5033916;28;20029;-80
2022/12/03 02:53:25;;;;;;;41.20;21.58;;;;;;;0.92;94.06;102306.53;5033880;28;20030;-76
2022/12/03 02:55:52;;;;;;;41.65;21.95;;;;;;;0.91;94.19;102307.38;5033956;28;20033;-77
2022/12/03 02:58:18;;;;;;;38.47;20.88;;;;;;;0.92;94.57;102301.44;5034028;28;20037;-83
2022/12/03 03:00:45;;;;;;;41.45;22.35;;;;;;;0.93;94.22;102303.13;5033871;28;20029;-78
2022/12/03 03:03:10;;;;;;;43.08;21.33;;;;;;;0.93;94.43;102306.50;5033469;28;20097;-76
2022/12/03 03:05:38;;;;;;;41.65;22.27;;;;;;;0.92;94.36;102299.72;5033838;28;20056;-76
2022/12/03 03:08:06;;;;;;;43.90;23.80;;;;;;;0.84;94.33;102287.00;5032006;28;20037;-81
2022/12/03 03:10:36;;;;;;;42.30;22.77;;;;;;;0.72;93.83;102261.56;5033825;28;20032;-84
2022/12/03 03:13:05;;;;;;;43.78;22.67;;;;;;;0.93;93.99;102303.97;5033552;28;20046;-76
2022/12/03 03:15:30;;;;;;;40.47;21.98;;;;;;;0.92;93.82;102289.56;5033606;28;20108;-78
2022/12/03 03:17:56;;;;;;;45.53;23.08;;;;;;;0.91;94.21;102290.41;5033440;28;20096;-80
2022/12/03 03:20:21;;;;;;;41.10;21.98;;;;;;;0.92;94.15;102286.16;5033284;28;20424;-82
2022/12/03 03:22:46;;;;;;;44.30;22.08;;;;;;;0.91;94.38;102292.97;5033414;28;20541;-76
2022/12/03 03:25:16;;;;;;;44.20;21.02;;;;;;;0.90;94.25;102296.34;5033297;28;20076;-75
2022/12/03 03:27:43;;;;;;;41.28;22.27;;;;;;;0.90;94.80;102280.25;5033597;28;20080;-75
2022/12/03 03:30:10;;;;;;;42.05;22.55;;;;;;;0.82;94.65;102282.78;5033417;28;20034;-85
2022/12/03 03:32:37;;;;;;;45.50;22.40;;;;;;;0.89;94.24;102283.63;5033328;28;20026;-84
2022/12/03 03:35:03;;;;;;;43.72;22.77;;;;;;;0.89;94.28;102281.09;5033056;28;20024;-84
2022/12/03 03:37:29;;;;;;;40.95;22.17;;;;;;;0.76;94.46;102263.25;5032999;28;20025;-78
2022/12/03 03:39:54;;;;;;;44.65;24.00;;;;;;;0.88;94.62;102274.28;5033313;28;20025;-86
2022/12/03 03:42:20;;;;;;;43.97;23.98;;;;;;;0.86;94.53;102285.31;5033310;28;20381;-85
2022/12/03 03:44:46;;;;;;;44.22;23.10;;;;;;;0.88;94.18;102279.38;5033308;28;20022;-87
2022/12/03 03:47:12;;;;;;;45.58;23.10;;;;;;;0.88;94.28;102274.28;5033404;28;20389;-88
2022/12/03 03:49:38;;;;;;;42.33;23.50;;;;;;;0.86;94.69;102266.66;5033080;28;20465;-87
2022/12/03 03:52:05;;;;;;;41.17;22.13;;;;;;;0.85;94.91;102263.28;5032989;28;20105;-84
2022/12/03 03:54:30;;;;;;;41.78;22.77;;;;;;;0.74;94.31;102254.78;5033089;28;20473;-88
2022/12/03 03:56:56;;;;;;;41.95;21.85;;;;;;;0.84;94.80;102268.34;5033300;28;20022;-86
2022/12/03 03:59:21;;;;;;;46.58;23.48;;;;;;;0.86;94.30;102277.69;5032889;28;20021;-88
2022/12/03 04:01:47;;;;;;;41.92;22.25;;;;;;;0.87;94.36;102273.44;5033282;28;20100;-83
2022/12/03 04:04:19;;;;;;;42.33;23.08;;;;;;;0.90;95.04;102270.06;5032907;28;20032;-75
2022/12/03 04:06:45;;;;;;;43.70;23.25;;;;;;;0.85;94.98;102267.50;5033066;28;20420;-77
2022/12/03 04:09:10;;;;;;;43.58;23.95;;;;;;;0.74;94.58;102253.94;5032982;28;20025;-77
2022/12/03 04:14:19;;;;;;;42.10;21.67;;;;;;;0.77;94.93;102249.69;5032786;28;20047;-76
2022/12/03 04:16:44;;;;;;;44.05;23.98;;;;;;;0.88;94.39;102267.50;5032917;28;20033;-78
2022/12/03 04:19:10;;;;;;;43.47;22.42;;;;;;;0.87;94.45;102270.88;5032855;28;20030;-79
2022/12/03 04:24:19;;;;;;;42.05;22.80;;;;;;;0.76;94.40;102252.25;5033113;28;20049;-76
2022/12/03 04:29:28;;;;;;;44.63;22.92;;;;;;;0.84;94.77;102258.19;5032759;28;20032;-77
2022/12/03 04:37:21;;;;;;;42.58;22.23;;;;;;;0.72;94.77;102238.69;5032992;28;20116;-79
2022/12/03 04:39:46;;;;;;;44.80;23.33;;;;;;;0.73;95.20;102244.63;5032748;28;20516;-77
2022/12/03 04:42:12;;;;;;;43.92;24.35;;;;;;;0.85;95.05;102259.88;5032598;28;20044;-77
2022/12/03 04:44:37;;;;;;;43.65;23.38;;;;;;;0.85;94.98;102257.34;5032805;28;20025;-76
2022/12/03 04:47:07;;;;;;;48.25;24.80;;;;;;;0.72;95.03;102237.84;5035747;28;20065;-82
2022/12/03 04:49:34;;;;;;;45.00;24.35;;;;;;;0.86;95.18;102264.97;5036506;28;20049;-84
2022/12/03 04:52:00;;;;;;;45.65;24.13;;;;;;;0.88;95.05;102253.94;5036209;28;20587;-88
2022/12/03 04:54:26;;;;;;;46.03;24.98;;;;;;;0.89;94.64;102258.22;5036326;28;20112;-87
2022/12/03 04:56:51;;;;;;;50.20;24.95;;;;;;;0.88;94.94;102256.47;5036244;28;20461;-87
2022/12/03 04:59:17;;;;;;;45.25;22.63;;;;;;;0.76;94.55;102224.28;5036168;28;20036;-87
2022/12/03 05:01:43;;;;;;;47.20;24.30;;;;;;;0.88;94.63;102253.94;5035914;28;20033;-87
2022/12/03 05:04:08;;;;;;;47.60;24.08;;;;;;;0.75;95.20;102235.28;5036005;28;20034;-88
2022/12/03 05:06:33;;;;;;;45.92;24.38;;;;;;;0.86;94.76;102244.63;5035819;28;20082;-87
2022/12/03 05:08:59;;;;;;;46.67;23.95;;;;;;;0.85;95.55;102242.06;5035849;28;20083;-85
2022/12/03 05:11:24;;;;;;;45.65;23.65;;;;;;;0.55;95.46;102198.00;5035869;28;20460;-87
2022/12/03 05:13:51;;;;;;;43.40;23.23;;;;;;;0.84;94.97;102248.03;5035521;28;20060;-86
2022/12/03 05:16:16;;;;;;;46.70;24.30;;;;;;;0.70;95.93;102232.78;5035679;28;20033;-84
2022/12/03 05:18:42;;;;;;;47.83;25.38;;;;;;;0.75;95.61;102233.59;5035970;28;20488;-86
2022/12/03 05:21:07;;;;;;;51.47;24.52;;;;;;;0.82;95.35;102242.09;5035671;28;20032;-87
2022/12/03 05:23:32;;;;;;;44.03;24.10;;;;;;;0.75;95.97;102235.28;5034273;28;20072;-84
2022/12/03 05:25:58;;;;;;;48.42;23.45;;;;;;;0.79;95.78;102250.56;5035713;28;20029;-86
2022/12/03 05:28:23;;;;;;;49.20;24.40;;;;;;;0.80;95.91;102243.78;5035560;28;20044;-86
2022/12/03 05:30:49;;;;;;;48.47;24.65;;;;;;;0.80;96.42;102241.25;5035739;28;20100;-86
2022/12/03 05:33:15;;;;;;;52.70;25.23;;;;;;;0.74;96.07;102231.91;5035328;28;20036;-86
2022/12/03 05:35:40;;;;;;;45.72;23.05;;;;;;;0.77;96.23;102233.59;5035586;28;20477;-86
2022/12/03 05:38:05;;;;;;;48.45;24.90;;;;;;;0.76;96.68;102237.84;5035191;28;20461;-83
2022/12/03 05:40:31;;;;;;;44.92;23.25;;;;;;;0.65;96.29;102215.81;5035453;28;20078;-79
2022/12/03 05:42:56;;;;;;;48.20;24.38;;;;;;;0.72;96.75;102220.91;5035387;28;20033;-86
2022/12/03 05:45:26;;;;;;;46.72;24.08;;;;;;;0.77;96.82;102231.06;5035296;28;20384;-87
2022/12/03 05:47:52;;;;;;;47.63;24.08;;;;;;;0.73;96.52;102225.13;5035121;28;20385;-84
2022/12/03 05:50:19;;;;;;;50.25;24.58;;;;;;;0.79;96.57;102226.84;5035234;28;20429;-86
2022/12/03 05:52:45;;;;;;;44.58;23.67;;;;;;;0.73;96.66;102217.50;5034828;28;20128;-82
2022/12/03 05:55:10;;;;;;;48.40;24.38;;;;;;;0.65;97.05;102203.09;5035008;28;20505;-81
2022/12/03 05:57:36;;;;;;;43.20;22.90;;;;;;;0.79;96.98;102230.22;5034970;28;20465;-85
2022/12/03 06:00:08;;;;;;;48.45;24.50;;;;;;;0.84;97.31;102227.69;5034950;28;20092;-85
2022/12/03 06:02:34;;;;;;;43.75;22.95;;;;;;;0.62;96.93;102193.78;5034775;28;20013;-86
2022/12/03 06:04:59;;;;;;;48.42;24.17;;;;;;;0.73;96.71;102219.19;5034739;28;20048;-83
2022/12/03 06:07:25;;;;;;;45.63;24.23;;;;;;;0.78;97.05;102220.88;5034840;28;20026;-85
2022/12/03 06:09:50;;;;;;;49.47;23.70;;;;;;;0.51;96.90;102180.22;5034845;28;20100;-85
2022/12/03 06:12:15;;;;;;;47.50;24.17;;;;;;;0.73;96.95;102220.06;5034732;28;20045;-86
2022/12/03 06:14:41;;;;;;;48.05;24.92;;;;;;;0.75;97.36;102228.50;5034487;28;20025;-85
2022/12/03 06:17:06;;;;;;;50.45;24.15;;;;;;;0.53;97.60;102193.78;5034704;28;20024;-87
2022/12/03 06:19:32;;;;;;;51.42;24.65;;;;;;;0.75;97.51;102230.22;5034455;28;20053;-83
2022/12/03 06:21:57;;;;;;;54.30;25.48;;;;;;;0.54;97.74;102191.22;5033119;28;20120;-86
2022/12/03 06:24:23;;;;;;;47.15;24.58;;;;;;;0.73;97.51;102225.13;5034576;28;20106;-82
2022/12/03 06:26:48;;;;;;;48.03;24.67;;;;;;;0.71;97.67;102224.28;5034636;28;20179;-81
2022/12/03 06:29:13;;;;;;;51.35;25.35;;;;;;;0.70;97.81;102235.31;5034491;28;20040;-86
2022/12/03 06:31:38;;;;;;;51.95;25.67;;;;;;;0.68;97.56;102226.81;5034517;28;20025;-85
2022/12/03 06:34:04;;;;;;;47.15;24.10;;;;;;;0.65;97.71;102211.56;5034019;28;20036;-81
2022/12/03 06:36:29;;;;;;;48.13;23.95;;;;;;;0.74;97.74;102223.44;5034348;28;20128;-81
2022/12/03 06:38:55;;;;;;;50.08;23.95;;;;;;;0.59;97.98;102198.88;5034205;28;20028;-83
2022/12/03 06:41:20;;;;;;;50.63;26.02;;;;;;;0.72;97.25;102223.44;5034209;28;20478;-79
2022/12/03 06:43:45;;;;;;;47.90;23.45;;;;;;;0.60;97.44;102203.09;5034206;28;20029;-85
2022/12/03 06:46:10;;;;;;;48.45;24.05;;;;;;;0.53;97.17;102188.69;5034326;28;20034;-86
2022/12/03 06:48:36;;;;;;;49.30;25.75;;;;;;;0.45;97.77;102177.69;5033897;28;20038;-83
2022/12/03 06:51:01;;;;;;;51.40;24.48;;;;;;;0.69;97.55;102222.56;5033936;28;20025;-79
2022/12/03 06:53:41;;;;;;;50.00;23.23;;;;;;;0.61;97.26;102203.97;4958705;28;20475;-86
2022/12/03 06:56:07;;;;;;;45.88;23.55;;;;;;;0.52;97.59;102195.47;4973054;28;20153;-76
2022/12/03 06:58:32;;;;;;;47.10;23.60;;;;;;;0.70;97.37;102221.75;4973365;28;20231;-75
2022/12/03 07:00:57;;;;;;;48.45;24.20;;;;;;;0.62;97.43;102205.66;4972918;28;20038;-76
2022/12/03 07:03:23;;;;;;;52.72;25.08;;;;;;;0.57;97.86;102190.38;4973073;28;20471;-77
2022/12/03 07:05:48;;;;;;;47.08;24.23;;;;;;;0.70;97.10;102211.59;4972898;28;20049;-77
2022/12/03 07:08:13;;;;;;;47.83;22.83;;;;;;;0.70;97.59;102221.75;4972314;28;20034;-77
2022/12/03 07:10:39;;;;;;;47.65;23.65;;;;;;;0.64;97.65;102209.88;4972766;28;20043;-75
2022/12/03 07:13:04;;;;;;;44.90;23.15;;;;;;;0.56;97.75;102202.25;4972695;28;20050;-75
2022/12/03 07:15:29;;;;;;;48.28;23.10;;;;;;;0.68;97.79;102215.78;4972568;28;20034;-76
2022/12/03 07:17:54;;;;;;;45.10;23.48;;;;;;;0.55;97.44;102189.53;4972982;28;20038;-83
2022/12/03 07:20:20;;;;;;;46.10;21.92;;;;;;;0.52;97.08;102195.47;4972630;28;20051;-83
2022/12/03 07:22:45;;;;;;;47.70;23.20;;;;;;;0.63;97.72;102208.19;4972461;28;20045;-84
2022/12/03 07:25:11;;;;;;;46.33;23.35;;;;;;;0.58;97.01;102200.53;4972638;28;20035;-85
2022/12/03 07:27:37;;;;;;;45.28;22.35;;;;;;;0.61;97.57;102198.88;4972835;28;20089;-84
2022/12/03 07:30:03;;;;;;;44.40;21.10;;;;;;;0.75;97.27;102220.03;4982672;28;20481;-80
2022/12/03 07:32:29;;;;;;;43.47;22.38;;;;;;;0.74;96.35;102216.66;5033481;28;20013;-83
2022/12/03 07:34:54;;;;;;;43.03;21.20;;;;;;;0.68;96.75;102203.94;5033409;28;20030;-82
2022/12/03 07:37:19;;;;;;;48.10;21.08;;;;;;;0.45;96.46;102172.59;5033091;28;20041;-83
2022/12/03 07:39:44;;;;;;;45.45;22.27;;;;;;;0.69;96.61;102215.81;5034152;28;20036;-84
2022/12/03 07:42:10;;;;;;;41.35;20.77;;;;;;;0.72;96.46;102225.97;5033326;28;20053;-84
2022/12/03 07:44:35;;;;;;;39.92;20.65;;;;;;;0.72;96.47;102220.91;5033121;28;20025;-84
2022/12/03 07:47:00;;;;;;;40.92;20.92;;;;;;;0.76;96.18;102222.59;5033757;28;20457;-85
2022/12/03 07:49:26;;;;;;;40.50;21.15;;;;;;;0.76;96.06;102219.19;5033192;28;20029;-84
2022/12/03 07:51:55;;;;;;;42.25;20.73;;;;;;;0.69;96.32;102205.66;5033146;28;20033;-84
2022/12/03 07:54:21;;;;;;;41.20;21.42;;;;;;;0.79;96.27;102220.06;5032845;28;20021;-83
2022/12/03 07:56:49;;;;;;;39.47;20.30;;;;;;;0.70;95.83;102203.97;5033119;28;20028;-84
2022/12/03 07:59:18;;;;;;;40.35;20.15;;;;;;;0.61;95.61;102192.09;5033267;28;20053;-83
2022/12/03 08:01:44;;;;;;;42.47;22.02;;;;;;;0.60;95.54;102189.56;5033071;28;20462;-84
2022/12/03 08:04:13;;;;;;;43.25;22.15;;;;;;;0.71;96.00;102203.94;5032977;28;20088;-86
2022/12/03 08:06:40;;;;;;;46.63;21.35;;;;;;;0.72;95.84;102213.28;5031764;28;20970;-83
2022/12/03 08:09:05;;;;;;;40.25;21.30;;;;;;;0.83;95.39;102228.53;5033020;28;20087;-83
2022/12/03 08:11:32;;;;;;;44.40;21.27;;;;;;;0.78;95.59;102217.50;5033043;28;20037;-85
2022/12/03 08:13:58;;;;;;;41.40;20.88;;;;;;;0.71;95.82;102208.19;5050524;28;20455;-85
2022/12/03 08:16:23;;;;;;;43.78;22.15;;;;;;;0.82;96.05;102222.59;5053123;28;20029;-86
2022/12/03 08:18:50;;;;;;;42.40;22.30;;;;;;;0.70;95.53;102207.34;5052816;28;20136;-86
2022/12/03 08:21:18;;;;;;;39.83;21.45;;;;;;;0.85;96.01;102232.75;5055072;28;20017;-80
2022/12/03 08:23:44;;;;;;;38.83;20.48;;;;;;;0.88;96.02;102228.50;5056566;28;20025;-83
2022/12/03 08:26:18;;;;;;;44.03;21.00;;;;;;;0.90;95.50;102234.47;5056567;28;20534;-83
2022/12/03 08:28:43;;;;;;;40.97;20.80;;;;;;;0.86;95.30;102215.78;5056538;28;20029;-82
2022/12/03 08:31:11;;;;;;;43.20;20.15;;;;;;;0.90;95.19;102231.94;5056677;28;20032;-79
2022/12/03 08:33:38;;;;;;;43.42;20.90;;;;;;;0.88;95.88;102236.97;5056524;28;20087;-85
2022/12/03 08:36:21;;;;;;;42.22;22.10;;;;;;;0.91;95.92;102229.38;5056337;28;20797;-79
2022/12/03 08:38:53;;;;;;;44.38;20.75;;;;;;;0.77;96.09;102214.09;5056386;28;20078;-82
2022/12/03 08:42:40;;;;;;;44.22;20.25;;;;;;;0.74;95.68;102218.34;5056403;28;20056;-85
2022/12/03 08:44:24;;;;;;;44.85;22.25;;;;;;;0.64;96.38;102191.25;5056303;28;20048;-79
2022/12/03 08:47:15;;;;;;;48.50;22.00;;;;;;;0.88;96.32;102231.91;5056616;28;20112;-84
2022/12/03 08:49:41;;;;;;;49.38;23.25;;;;;;;0.77;96.02;102208.19;5056299;28;20036;-84
2022/12/03 08:52:17;;;;;;;48.15;21.77;;;;;;;0.87;96.16;102227.66;5056238;28;20107;-86
2022/12/03 08:54:48;;;;;;;45.65;21.92;;;;;;;0.78;96.32;102204.78;5054381;28;20488;-82
2022/12/03 08:57:30;;;;;;;47.03;23.00;;;;;;;0.77;96.12;102198.00;5056096;28;20032;-86
2022/12/03 08:59:59;;;;;;;44.55;21.63;;;;;;;0.78;95.92;102200.53;5055981;28;20380;-83
2022/12/03 09:02:31;;;;;;;47.13;21.98;;;;;;;0.93;95.79;102225.13;5056114;28;20052;-84
2022/12/03 09:05:01;;;;;;;47.90;22.98;;;;;;;0.79;96.06;102194.63;5055993;28;20029;-83
2022/12/03 09:07:27;;;;;;;49.20;21.88;;;;;;;0.96;96.00;102224.28;5055689;28;20079;-82
2022/12/03 09:09:52;;;;;;;46.72;20.85;;;;;;;0.95;95.46;102223.44;5055661;28;20025;-81
2022/12/03 09:12:17;;;;;;;44.72;21.75;;;;;;;0.94;95.53;102220.88;5055584;28;20057;-82
2022/12/03 09:14:42;;;;;;;49.40;23.02;;;;;;;0.64;94.50;102169.22;5055997;28;20025;-82
2022/12/03 09:17:08;;;;;;;49.53;23.45;;;;;;;0.99;93.67;102224.28;5055949;28;20229;-84
2022/12/03 09:19:33;;;;;;;52.78;22.83;;;;;;;0.95;93.44;102220.03;5055728;28;20017;-84
2022/12/03 09:21:58;;;;;;;49.20;22.05;;;;;;;0.96;93.26;102222.56;5055256;28;20500;-79
2022/12/03 09:24:24;;;;;;;48.88;21.60;;;;;;;0.98;94.02;102220.88;5055529;28;20025;-85
2022/12/03 09:26:49;;;;;;;50.03;23.30;;;;;;;0.64;93.75;102165.81;5055437;28;20473;-82
2022/12/03 09:29:15;;;;;;;52.53;23.55;;;;;;;0.96;93.58;102220.03;5055534;28;20032;-83
2022/12/03 09:31:40;;;;;;;51.80;23.67;;;;;;;0.97;93.95;102223.41;5053522;28;20020;-83
2022/12/03 09:34:06;;;;;;;52.72;22.55;;;;;;;0.78;93.79;102194.59;5055299;28;20478;-80
2022/12/03 09:36:32;;;;;;;50.33;23.15;;;;;;;0.88;94.23;102209.00;5053594;28;20056;-79
2022/12/03 09:38:57;;;;;;;50.08;24.15;;;;;;;0.93;93.95;102216.66;5055374;28;20159;-83
2022/12/03 09:41:23;;;;;;;50.90;23.83;;;;;;;1.00;93.41;102215.81;5055088;28;20090;-81
2022/12/03 09:43:50;;;;;;;50.17;22.83;;;;;;;0.95;93.65;102215.78;5055230;28;20036;-80
2022/12/03 09:46:15;;;;;;;54.10;23.90;;;;;;;1.00;93.85;102215.81;5055348;28;20104;-81
2022/12/03 09:48:41;;;;;;;48.55;23.45;;;;;;;1.03;93.70;102218.34;5055320;28;20506;-82
2022/12/03 09:51:08;;;;;;;52.03;22.92;;;;;;;0.89;92.83;102187.84;5054923;28;20032;-83
2022/12/03 09:53:33;;;;;;;51.92;24.70;;;;;;;1.04;92.87;102202.22;5054874;28;20388;-85
2022/12/03 09:55:59;;;;;;;51.67;23.75;;;;;;;1.03;93.75;102208.16;5055014;28;20037;-84
2022/12/03 09:58:26;;;;;;;51.47;24.13;;;;;;;1.03;93.24;102200.53;5055062;28;20017;-84
2022/12/03 10:00:52;;;;;;;51.53;23.83;;;;;;;0.86;92.36;102168.31;5055095;28;20021;-84
2022/12/03 10:03:22;;;;;;;53.25;24.23;;;;;;;0.92;92.98;102186.97;5054639;28;20469;-83
2022/12/03 10:05:48;;;;;;;52.92;23.05;;;;;;;0.99;92.72;102202.25;5054835;28;20017;-80
2022/12/03 10:08:19;;;;;;;47.80;23.30;;;;;;;0.91;92.49;102192.91;5054631;28;20029;-82
2022/12/03 10:10:45;;;;;;;50.72;23.42;;;;;;;0.92;93.63;102192.91;5054956;28;20075;-80
2022/12/03 10:13:15;;;;;;;53.20;24.23;;;;;;;0.89;93.84;102171.75;5054472;28;20400;-82
2022/12/03 10:15:41;;;;;;;48.92;23.83;;;;;;;1.03;92.95;102195.44;5054649;28;20025;-82
2022/12/03 10:18:23;;;;;;;56.50;24.80;;;;;;;0.94;93.56;102175.09;5054686;28;20036;-83
2022/12/03 10:20:50;;;;;;;52.67;23.33;;;;;;;0.90;92.77;102166.66;5054536;28;20033;-80
2022/12/03 10:23:19;;;;;;;51.15;23.23;;;;;;;0.90;92.84;102175.97;5054392;28;20025;-84
2022/12/03 10:25:54;;;;;;;51.70;23.30;;;;;;;0.97;93.17;102180.19;5054317;28;20086;-83
2022/12/03 10:28:27;;;;;;;54.60;24.25;;;;;;;0.83;94.25;102158.16;5054288;28;20423;-83
2022/12/03 10:30:56;;;;;;;58.85;25.38;;;;;;;0.99;93.41;102175.97;5054459;28;20025;-84
2022/12/03 10:33:28;;;;;;;54.25;24.02;;;;;;;0.99;92.92;102179.34;5054062;28;20029;-80
2022/12/03 10:35:53;;;;;;;48.40;22.75;;;;;;;0.93;93.46;102165.78;5054021;28;20028;-82
2022/12/03 10:38:23;;;;;;;53.13;23.83;;;;;;;0.91;92.79;102163.25;5054415;28;20550;-80
2022/12/03 10:40:49;;;;;;;52.00;22.40;;;;;;;0.75;93.22;102137.00;5054193;28;20021;-81
2022/12/03 10:43:17;;;;;;;50.83;22.88;;;;;;;0.90;93.44;102166.66;5053129;28;20465;-78
2022/12/03 10:45:47;;;;;;;48.28;23.65;;;;;;;0.89;93.66;102157.31;5053921;28;20021;-81
2022/12/03 10:48:18;;;;;;;49.15;21.85;;;;;;;0.72;93.25;102137.00;5053920;28;20539;-75
2022/12/03 10:50:52;;;;;;;42.67;19.98;;;;;;;0.76;92.60;102135.28;5053940;28;20516;-83
2022/12/03 10:53:20;;;;;;;44.08;19.67;;;;;;;0.89;92.14;102156.47;5054120;28;20033;-84
2022/12/03 10:55:47;;;;;;;38.20;17.13;;;;;;;0.79;90.43;102141.25;5054035;28;20020;-83
2022/12/03 10:58:22;;;;;;;39.15;18.58;;;;;;;0.75;90.82;102137.00;5052500;28;20025;-85
2022/12/03 11:00:52;;;;;;;35.75;17.48;;;;;;;0.79;90.13;102132.75;5041511;28;20033;-84
2022/12/03 11:03:25;;;;;;;39.47;18.58;;;;;;;0.92;89.53;102139.50;5033863;28;20509;-84
2022/12/03 11:05:52;;;;;;;39.17;17.77;;;;;;;0.99;89.92;102141.19;5033954;28;20025;-84
2022/12/03 11:08:21;;;;;;;33.13;16.30;;;;;;;1.05;88.26;102127.59;5033815;28;20030;-81
2022/12/03 11:11:00;;;;;;;30.83;15.52;;;;;;;1.10;87.15;102134.38;5033730;28;20022;-84
2022/12/03 11:13:28;;;;;;;29.20;14.80;;;;;;;1.11;86.84;102136.06;5031892;28;20115;-84
2022/12/03 11:15:54;;;;;;;34.75;15.70;;;;;;;1.13;86.73;102143.69;5033735;28;20025;-83
2022/12/03 11:18:34;;;;;;;29.25;15.18;;;;;;;1.09;85.89;102137.78;5033587;28;20037;-84
2022/12/03 11:21:01;;;;;;;30.40;14.73;;;;;;;1.07;86.31;102142.00;5031945;28;20061;-82
2022/12/03 11:23:45;;;;;;;30.63;15.32;;;;;;;1.08;86.69;102133.53;5034074;28;20457;-83
2022/12/03 11:26:15;;;;;;;28.90;14.25;;;;;;;0.98;86.43;102110.66;5033441;28;20108;-84
2022/12/03 11:28:55;;;;;;;31.90;15.25;;;;;;;1.06;86.30;102119.97;5033084;28;20029;-74
2022/12/03 11:31:46;;;;;;;29.90;14.85;;;;;;;1.06;86.17;102121.66;5033426;28;20075;-84
2022/12/03 11:34:21;;;;;;;32.28;16.35;;;;;;;1.00;86.63;102117.44;5032051;28;20025;-78